sensor_id;sensor_type;location;lat;lon;timestamp;P1;durP1;ratioP1;P2;durP2;ratioP2
31037;SDS011;17702;47.590;7.666;2022-09-09T00:04:13;5.78;;;1.17;;
31037;SDS011;17702;47.590;7.666;2022-09-09T00:09:17;5.78;;;1.30;;
31037;SDS011;17702;47.590;7.666;2022-09-09T00:11:48;4.43;;;1.20;;
31037;SDS011;17702;47.590;7.666;2022-09-09T00:14:20;8.27;;;1.42;;
31037;SDS011;17702;47.590;7.666;2022-09-09T00:17:12;6.38;;;1.77;;
31037;SDS011;17702;47.590;7.666;2022-09-09T00:19:50;3.80;;;1.10;;
31037;SDS011;17702;47.590;7.666;2022-09-09T00:22:25;4.53;;;1.10;;
31037;SDS011;17702;47.590;7.666;2022-09-09T00:24:56;4.88;;;1.33;;
31037;SDS011;17702;47.590;7.666;2022-09-09T00:27:36;2.45;;;0.88;;
31037;SDS011;17702;47.590;7.666;2022-09-09T00:30:19;2.13;;;0.90;;
31037;SDS011;17702;47.590;7.666;2022-09-09T00:32:48;6.68;;;1.00;;
31037;SDS011;17702;47.590;7.666;2022-09-09T00:35:31;3.60;;;0.82;;
31037;SDS011;17702;47.590;7.666;2022-09-09T00:38:11;6.05;;;1.10;;
31037;SDS011;17702;47.590;7.666;2022-09-09T00:41:10;4.57;;;1.20;;
31037;SDS011;17702;47.590;7.666;2022-09-09T00:43:37;4.53;;;1.63;;
31037;SDS011;17702;47.590;7.666;2022-09-09T00:46:18;6.30;;;1.30;;
31037;SDS011;17702;47.590;7.666;2022-09-09T00:55:05;6.13;;;1.25;;
31037;SDS011;17702;47.590;7.666;2022-09-09T01:06:14;5.93;;;1.30;;
31037;SDS011;17702;47.590;7.666;2022-09-09T01:17:08;6.78;;;1.92;;
31037;SDS011;17702;47.590;7.666;2022-09-09T01:27:38;2.13;;;1.15;;
31037;SDS011;17702;47.590;7.666;2022-09-09T01:30:14;6.38;;;1.40;;
31037;SDS011;17702;47.590;7.666;2022-09-09T01:38:11;4.22;;;1.70;;
31037;SDS011;17702;47.590;7.666;2022-09-09T01:40:37;3.38;;;1.15;;
31037;SDS011;17702;47.590;7.666;2022-09-09T01:43:03;3.85;;;1.00;;
31037;SDS011;17702;47.590;7.666;2022-09-09T01:45:29;11.40;;;1.60;;
31037;SDS011;17702;47.590;7.666;2022-09-09T01:47:55;4.82;;;1.10;;
31037;SDS011;17702;47.590;7.666;2022-09-09T01:50:22;1.77;;;1.00;;
31037;SDS011;17702;47.590;7.666;2022-09-09T01:52:49;5.15;;;1.17;;
31037;SDS011;17702;47.590;7.666;2022-09-09T01:55:18;5.18;;;1.13;;
31037;SDS011;17702;47.590;7.666;2022-09-09T02:00:33;2.78;;;1.27;;
31037;SDS011;17702;47.590;7.666;2022-09-09T02:06:00;1.23;;;0.90;;
31037;SDS011;17702;47.590;7.666;2022-09-09T02:08:55;6.43;;;1.38;;
31037;SDS011;17702;47.590;7.666;2022-09-09T02:11:23;4.65;;;1.75;;
31037;SDS011;17702;47.590;7.666;2022-09-09T02:13:52;3.47;;;1.35;;
31037;SDS011;17702;47.590;7.666;2022-09-09T02:16:23;4.18;;;1.55;;
31037;SDS011;17702;47.590;7.666;2022-09-09T02:21:22;4.78;;;1.70;;
31037;SDS011;17702;47.590;7.666;2022-09-09T02:23:49;6.88;;;2.10;;
31037;SDS011;17702;47.590;7.666;2022-09-09T02:26:18;11.30;;;1.45;;
31037;SDS011;17702;47.590;7.666;2022-09-09T02:28:48;4.50;;;1.50;;
31037;SDS011;17702;47.590;7.666;2022-09-09T02:31:17;8.20;;;1.55;;
31037;SDS011;17702;47.590;7.666;2022-09-09T02:33:51;5.95;;;1.70;;
31037;SDS011;17702;47.590;7.666;2022-09-09T02:36:24;4.43;;;2.10;;
31037;SDS011;17702;47.590;7.666;2022-09-09T02:38:54;4.18;;;1.60;;
31037;SDS011;17702;47.590;7.666;2022-09-09T02:41:22;6.28;;;1.67;;
31037;SDS011;17702;47.590;7.666;2022-09-09T02:43:51;4.15;;;1.67;;
31037;SDS011;17702;47.590;7.666;2022-09-09T02:52:01;2.80;;;1.75;;
31037;SDS011;17702;47.590;7.666;2022-09-09T02:54:34;3.67;;;1.40;;
31037;SDS011;17702;47.590;7.666;2022-09-09T02:59:35;8.20;;;1.80;;
31037;SDS011;17702;47.590;7.666;2022-09-09T03:02:00;6.88;;;1.80;;
31037;SDS011;17702;47.590;7.666;2022-09-09T03:04:26;7.43;;;1.65;;
31037;SDS011;17702;47.590;7.666;2022-09-09T03:06:52;6.60;;;1.50;;
31037;SDS011;17702;47.590;7.666;2022-09-09T03:09:18;9.52;;;1.60;;
31037;SDS011;17702;47.590;7.666;2022-09-09T03:11:43;7.10;;;1.58;;
31037;SDS011;17702;47.590;7.666;2022-09-09T03:14:09;7.82;;;1.70;;
31037;SDS011;17702;47.590;7.666;2022-09-09T03:16:36;3.65;;;1.45;;
31037;SDS011;17702;47.590;7.666;2022-09-09T03:19:02;4.00;;;1.90;;
31037;SDS011;17702;47.590;7.666;2022-09-09T03:21:27;2.90;;;1.48;;
31037;SDS011;17702;47.590;7.666;2022-09-09T03:23:53;7.32;;;1.50;;
31037;SDS011;17702;47.590;7.666;2022-09-09T03:26:19;4.18;;;1.25;;
31037;SDS011;17702;47.590;7.666;2022-09-09T03:28:45;2.53;;;1.55;;
31037;SDS011;17702;47.590;7.666;2022-09-09T03:31:10;5.90;;;1.52;;
31037;SDS011;17702;47.590;7.666;2022-09-09T03:33:37;6.03;;;1.58;;
31037;SDS011;17702;47.590;7.666;2022-09-09T03:36:03;4.03;;;1.50;;
31037;SDS011;17702;47.590;7.666;2022-09-09T03:38:29;5.90;;;1.58;;
31037;SDS011;17702;47.590;7.666;2022-09-09T03:40:55;4.70;;;1.73;;
31037;SDS011;17702;47.590;7.666;2022-09-09T03:43:25;8.00;;;1.65;;
31037;SDS011;17702;47.590;7.666;2022-09-09T03:45:51;6.53;;;1.98;;
31037;SDS011;17702;47.590;7.666;2022-09-09T03:48:18;4.13;;;1.73;;
31037;SDS011;17702;47.590;7.666;2022-09-09T03:50:48;4.20;;;2.15;;
31037;SDS011;17702;47.590;7.666;2022-09-09T03:53:15;9.48;;;2.17;;
31037;SDS011;17702;47.590;7.666;2022-09-09T03:55:45;4.20;;;2.03;;
31037;SDS011;17702;47.590;7.666;2022-09-09T03:58:14;4.00;;;1.60;;
31037;SDS011;17702;47.590;7.666;2022-09-09T04:00:41;5.60;;;1.40;;
31037;SDS011;17702;47.590;7.666;2022-09-09T04:03:09;3.53;;;1.85;;
31037;SDS011;17702;47.590;7.666;2022-09-09T04:05:36;2.22;;;1.33;;
31037;SDS011;17702;47.590;7.666;2022-09-09T04:08:08;6.22;;;1.60;;
31037;SDS011;17702;47.590;7.666;2022-09-09T04:10:34;2.75;;;1.60;;
31037;SDS011;17702;47.590;7.666;2022-09-09T04:13:03;5.68;;;1.70;;
31037;SDS011;17702;47.590;7.666;2022-09-09T04:15:30;3.22;;;1.40;;
31037;SDS011;17702;47.590;7.666;2022-09-09T04:17:56;5.97;;;1.40;;
31037;SDS011;17702;47.590;7.666;2022-09-09T04:20:22;4.65;;;1.80;;
31037;SDS011;17702;47.590;7.666;2022-09-09T04:22:48;7.05;;;2.75;;
31037;SDS011;17702;47.590;7.666;2022-09-09T04:25:13;5.25;;;1.45;;
31037;SDS011;17702;47.590;7.666;2022-09-09T04:27:39;6.22;;;1.67;;
31037;SDS011;17702;47.590;7.666;2022-09-09T04:30:05;2.72;;;1.60;;
31037;SDS011;17702;47.590;7.666;2022-09-09T04:32:32;2.33;;;1.30;;
31037;SDS011;17702;47.590;7.666;2022-09-09T04:34:58;3.80;;;1.70;;
31037;SDS011;17702;47.590;7.666;2022-09-09T04:37:24;7.07;;;1.58;;
31037;SDS011;17702;47.590;7.666;2022-09-09T04:39:50;5.40;;;1.95;;
31037;SDS011;17702;47.590;7.666;2022-09-09T04:42:15;5.03;;;2.40;;
31037;SDS011;17702;47.590;7.666;2022-09-09T04:44:42;5.93;;;2.08;;
31037;SDS011;17702;47.590;7.666;2022-09-09T04:47:09;2.38;;;2.00;;
31037;SDS011;17702;47.590;7.666;2022-09-09T04:49:34;4.97;;;1.98;;
31037;SDS011;17702;47.590;7.666;2022-09-09T04:52:01;9.60;;;1.50;;
31037;SDS011;17702;47.590;7.666;2022-09-09T04:54:28;2.35;;;1.52;;
31037;SDS011;17702;47.590;7.666;2022-09-09T04:56:54;5.80;;;1.23;;
31037;SDS011;17702;47.590;7.666;2022-09-09T04:59:20;3.75;;;1.60;;
31037;SDS011;17702;47.590;7.666;2022-09-09T05:01:46;5.13;;;1.85;;
31037;SDS011;17702;47.590;7.666;2022-09-09T05:04:13;4.38;;;1.48;;
31037;SDS011;17702;47.590;7.666;2022-09-09T05:06:40;5.60;;;2.47;;
31037;SDS011;17702;47.590;7.666;2022-09-09T05:09:07;7.13;;;2.83;;
31037;SDS011;17702;47.590;7.666;2022-09-09T05:11:33;6.68;;;2.72;;
31037;SDS011;17702;47.590;7.666;2022-09-09T05:14:01;6.15;;;2.90;;
31037;SDS011;17702;47.590;7.666;2022-09-09T05:16:27;4.07;;;2.40;;
31037;SDS011;17702;47.590;7.666;2022-09-09T05:18:53;6.55;;;2.35;;
31037;SDS011;17702;47.590;7.666;2022-09-09T05:21:20;4.13;;;1.85;;
31037;SDS011;17702;47.590;7.666;2022-09-09T05:23:47;6.53;;;2.20;;
31037;SDS011;17702;47.590;7.666;2022-09-09T05:26:15;5.25;;;1.90;;
31037;SDS011;17702;47.590;7.666;2022-09-09T05:28:42;6.40;;;1.60;;
31037;SDS011;17702;47.590;7.666;2022-09-09T05:31:08;6.10;;;1.50;;
31037;SDS011;17702;47.590;7.666;2022-09-09T05:33:37;3.40;;;1.67;;
31037;SDS011;17702;47.590;7.666;2022-09-09T05:36:06;3.60;;;1.83;;
31037;SDS011;17702;47.590;7.666;2022-09-09T05:38:35;3.63;;;1.75;;
31037;SDS011;17702;47.590;7.666;2022-09-09T05:41:02;9.70;;;1.90;;
31037;SDS011;17702;47.590;7.666;2022-09-09T05:43:28;2.10;;;1.75;;
31037;SDS011;17702;47.590;7.666;2022-09-09T05:46:04;4.60;;;1.60;;
31037;SDS011;17702;47.590;7.666;2022-09-09T05:48:32;4.65;;;1.92;;
31037;SDS011;17702;47.590;7.666;2022-09-09T05:50:59;3.40;;;1.60;;
31037;SDS011;17702;47.590;7.666;2022-09-09T05:53:26;4.18;;;2.40;;
31037;SDS011;17702;47.590;7.666;2022-09-09T05:56:02;1.92;;;1.80;;
31037;SDS011;17702;47.590;7.666;2022-09-09T05:58:30;1.85;;;1.70;;
31037;SDS011;17702;47.590;7.666;2022-09-09T06:03:32;6.68;;;2.00;;
31037;SDS011;17702;47.590;7.666;2022-09-09T06:06:06;4.05;;;1.90;;
31037;SDS011;17702;47.590;7.666;2022-09-09T06:08:34;8.68;;;1.73;;
31037;SDS011;17702;47.590;7.666;2022-09-09T06:13:49;6.60;;;2.90;;
31037;SDS011;17702;47.590;7.666;2022-09-09T06:16:20;6.45;;;2.10;;
31037;SDS011;17702;47.590;7.666;2022-09-09T06:18:51;3.63;;;1.70;;
31037;SDS011;17702;47.590;7.666;2022-09-09T06:21:23;7.78;;;1.30;;
31037;SDS011;17702;47.590;7.666;2022-09-09T06:26:19;3.38;;;1.00;;
31037;SDS011;17702;47.590;7.666;2022-09-09T06:28:46;2.38;;;1.30;;
31037;SDS011;17702;47.590;7.666;2022-09-09T06:31:14;4.03;;;1.38;;
31037;SDS011;17702;47.590;7.666;2022-09-09T06:33:46;5.70;;;1.00;;
31037;SDS011;17702;47.590;7.666;2022-09-09T06:36:14;5.07;;;1.38;;
31037;SDS011;17702;47.590;7.666;2022-09-09T06:38:41;3.42;;;1.08;;
31037;SDS011;17702;47.590;7.666;2022-09-09T06:41:08;5.03;;;1.48;;
31037;SDS011;17702;47.590;7.666;2022-09-09T06:43:35;5.93;;;1.40;;
31037;SDS011;17702;47.590;7.666;2022-09-09T06:46:14;6.40;;;1.42;;
31037;SDS011;17702;47.590;7.666;2022-09-09T06:48:43;4.55;;;1.42;;
31037;SDS011;17702;47.590;7.666;2022-09-09T06:51:11;8.57;;;2.03;;
31037;SDS011;17702;47.590;7.666;2022-09-09T06:53:38;11.35;;;4.15;;
31037;SDS011;17702;47.590;7.666;2022-09-09T06:58:46;9.32;;;4.43;;
31037;SDS011;17702;47.590;7.666;2022-09-09T07:01:14;10.93;;;4.75;;
31037;SDS011;17702;47.590;7.666;2022-09-09T07:03:46;10.40;;;4.40;;
31037;SDS011;17702;47.590;7.666;2022-09-09T07:06:14;10.32;;;3.35;;
31037;SDS011;17702;47.590;7.666;2022-09-09T07:08:42;4.93;;;2.50;;
31037;SDS011;17702;47.590;7.666;2022-09-09T07:11:08;5.50;;;1.73;;
31037;SDS011;17702;47.590;7.666;2022-09-09T07:13:34;3.33;;;1.42;;
31037;SDS011;17702;47.590;7.666;2022-09-09T07:16:04;8.32;;;1.65;;
31037;SDS011;17702;47.590;7.666;2022-09-09T07:18:31;3.00;;;1.30;;
31037;SDS011;17702;47.590;7.666;2022-09-09T07:20:56;5.82;;;1.52;;
31037;SDS011;17702;47.590;7.666;2022-09-09T07:23:22;5.20;;;1.27;;
31037;SDS011;17702;47.590;7.666;2022-09-09T07:25:48;2.50;;;1.20;;
31037;SDS011;17702;47.590;7.666;2022-09-09T07:28:15;6.63;;;2.05;;
31037;SDS011;17702;47.590;7.666;2022-09-09T07:30:41;4.15;;;1.33;;
31037;SDS011;17702;47.590;7.666;2022-09-09T07:33:08;6.85;;;1.55;;
31037;SDS011;17702;47.590;7.666;2022-09-09T07:35:34;6.22;;;1.90;;
31037;SDS011;17702;47.590;7.666;2022-09-09T07:38:02;5.43;;;1.77;;
31037;SDS011;17702;47.590;7.666;2022-09-09T07:40:31;3.80;;;1.63;;
31037;SDS011;17702;47.590;7.666;2022-09-09T07:42:57;5.15;;;2.17;;
31037;SDS011;17702;47.590;7.666;2022-09-09T07:45:27;6.80;;;3.70;;
31037;SDS011;17702;47.590;7.666;2022-09-09T07:47:58;6.93;;;4.55;;
31037;SDS011;17702;47.590;7.666;2022-09-09T07:50:24;9.82;;;3.45;;
31037;SDS011;17702;47.590;7.666;2022-09-09T07:52:50;7.97;;;2.30;;
31037;SDS011;17702;47.590;7.666;2022-09-09T07:55:16;6.00;;;2.35;;
31037;SDS011;17702;47.590;7.666;2022-09-09T07:57:42;4.78;;;2.10;;
31037;SDS011;17702;47.590;7.666;2022-09-09T08:00:08;3.00;;;1.95;;
31037;SDS011;17702;47.590;7.666;2022-09-09T08:02:35;9.05;;;1.92;;
31037;SDS011;17702;47.590;7.666;2022-09-09T08:05:01;7.82;;;1.70;;
31037;SDS011;17702;47.590;7.666;2022-09-09T08:07:27;5.55;;;1.67;;
31037;SDS011;17702;47.590;7.666;2022-09-09T08:09:53;7.22;;;1.50;;
31037;SDS011;17702;47.590;7.666;2022-09-09T08:12:20;4.60;;;1.30;;
31037;SDS011;17702;47.590;7.666;2022-09-09T08:14:46;4.60;;;1.33;;
31037;SDS011;17702;47.590;7.666;2022-09-09T08:17:13;6.28;;;1.33;;
31037;SDS011;17702;47.590;7.666;2022-09-09T08:19:39;6.22;;;1.40;;
31037;SDS011;17702;47.590;7.666;2022-09-09T08:22:04;4.38;;;0.77;;
31037;SDS011;17702;47.590;7.666;2022-09-09T08:24:30;6.03;;;1.05;;
31037;SDS011;17702;47.590;7.666;2022-09-09T08:26:56;5.45;;;1.02;;
31037;SDS011;17702;47.590;7.666;2022-09-09T08:29:22;3.53;;;0.63;;
31037;SDS011;17702;47.590;7.666;2022-09-09T08:31:49;2.70;;;0.80;;
31037;SDS011;17702;47.590;7.666;2022-09-09T08:34:22;6.70;;;1.33;;
31037;SDS011;17702;47.590;7.666;2022-09-09T08:36:49;3.60;;;1.50;;
31037;SDS011;17702;47.590;7.666;2022-09-09T08:39:17;4.38;;;1.15;;
31037;SDS011;17702;47.590;7.666;2022-09-09T08:50:18;6.88;;;0.77;;
31037;SDS011;17702;47.590;7.666;2022-09-09T08:52:54;3.45;;;0.85;;
31037;SDS011;17702;47.590;7.666;2022-09-09T08:55:37;3.42;;;0.77;;
31037;SDS011;17702;47.590;7.666;2022-09-09T08:58:19;5.38;;;0.70;;
31037;SDS011;17702;47.590;7.666;2022-09-09T09:00:57;6.53;;;1.10;;
31037;SDS011;17702;47.590;7.666;2022-09-09T09:03:32;2.33;;;0.73;;
31037;SDS011;17702;47.590;7.666;2022-09-09T09:08:36;2.13;;;0.82;;
31037;SDS011;17702;47.590;7.666;2022-09-09T09:11:44;3.35;;;0.80;;
31037;SDS011;17702;47.590;7.666;2022-09-09T09:14:22;5.22;;;1.35;;
31037;SDS011;17702;47.590;7.666;2022-09-09T09:19:25;6.78;;;1.45;;
31037;SDS011;17702;47.590;7.666;2022-09-09T09:21:55;3.05;;;0.68;;
31037;SDS011;17702;47.590;7.666;2022-09-09T09:27:15;3.45;;;0.75;;
31037;SDS011;17702;47.590;7.666;2022-09-09T09:29:46;5.63;;;0.93;;
31037;SDS011;17702;47.590;7.666;2022-09-09T09:32:16;2.10;;;0.70;;
31037;SDS011;17702;47.590;7.666;2022-09-09T09:34:48;5.90;;;0.65;;
31037;SDS011;17702;47.590;7.666;2022-09-09T09:37:28;9.52;;;0.75;;
31037;SDS011;17702;47.590;7.666;2022-09-09T09:39:56;5.05;;;0.55;;
31037;SDS011;17702;47.590;7.666;2022-09-09T09:42:32;1.75;;;0.52;;
31037;SDS011;17702;47.590;7.666;2022-09-09T09:45:07;4.63;;;0.77;;
31037;SDS011;17702;47.590;7.666;2022-09-09T09:47:39;2.10;;;0.47;;
31037;SDS011;17702;47.590;7.666;2022-09-09T09:50:16;4.35;;;0.63;;
31037;SDS011;17702;47.590;7.666;2022-09-09T09:52:51;4.85;;;0.68;;
31037;SDS011;17702;47.590;7.666;2022-09-09T09:55:25;2.38;;;0.70;;
31037;SDS011;17702;47.590;7.666;2022-09-09T09:57:52;8.95;;;1.13;;
31037;SDS011;17702;47.590;7.666;2022-09-09T10:00:20;6.15;;;0.70;;
31037;SDS011;17702;47.590;7.666;2022-09-09T10:02:48;4.03;;;0.80;;
31037;SDS011;17702;47.590;7.666;2022-09-09T10:07:44;5.75;;;0.63;;
31037;SDS011;17702;47.590;7.666;2022-09-09T10:10:19;7.28;;;0.88;;
31037;SDS011;17702;47.590;7.666;2022-09-09T10:13:04;5.60;;;0.93;;
31037;SDS011;17702;47.590;7.666;2022-09-09T10:15:42;3.50;;;0.80;;
31037;SDS011;17702;47.590;7.666;2022-09-09T10:35:02;4.93;;;0.85;;
31037;SDS011;17702;47.590;7.666;2022-09-09T10:37:27;3.50;;;0.50;;
31037;SDS011;17702;47.590;7.666;2022-09-09T10:40:02;1.73;;;0.63;;
31037;SDS011;17702;47.590;7.666;2022-09-09T10:42:51;3.20;;;0.80;;
31037;SDS011;17702;47.590;7.666;2022-09-09T10:45:23;3.38;;;0.60;;
31037;SDS011;17702;47.590;7.666;2022-09-09T10:48:02;2.25;;;0.68;;
31037;SDS011;17702;47.590;7.666;2022-09-09T10:50:39;3.33;;;0.50;;
31037;SDS011;17702;47.590;7.666;2022-09-09T10:53:35;2.63;;;0.70;;
31037;SDS011;17702;47.590;7.666;2022-09-09T10:56:06;3.17;;;0.60;;
31037;SDS011;17702;47.590;7.666;2022-09-09T10:58:38;1.55;;;0.50;;
31037;SDS011;17702;47.590;7.666;2022-09-09T11:01:22;2.65;;;0.57;;
31037;SDS011;17702;47.590;7.666;2022-09-09T11:03:51;3.47;;;0.65;;
31037;SDS011;17702;47.590;7.666;2022-09-09T11:06:29;2.88;;;0.90;;
31037;SDS011;17702;47.590;7.666;2022-09-09T11:09:08;1.88;;;0.55;;
31037;SDS011;17702;47.590;7.666;2022-09-09T11:11:43;4.18;;;0.68;;
31037;SDS011;17702;47.590;7.666;2022-09-09T11:14:34;3.15;;;0.68;;
31037;SDS011;17702;47.590;7.666;2022-09-09T11:17:11;4.22;;;0.73;;
31037;SDS011;17702;47.590;7.666;2022-09-09T11:19:45;2.22;;;0.73;;
31037;SDS011;17702;47.590;7.666;2022-09-09T11:40:45;6.30;;;0.98;;
31037;SDS011;17702;47.590;7.666;2022-09-09T11:43:23;4.38;;;0.60;;
31037;SDS011;17702;47.590;7.666;2022-09-09T11:45:58;5.07;;;0.70;;
31037;SDS011;17702;47.590;7.666;2022-09-09T11:51:25;3.42;;;0.95;;
31037;SDS011;17702;47.590;7.666;2022-09-09T11:53:54;2.97;;;0.80;;
31037;SDS011;17702;47.590;7.666;2022-09-09T11:56:24;5.25;;;0.80;;
31037;SDS011;17702;47.590;7.666;2022-09-09T11:58:55;4.30;;;0.93;;
31037;SDS011;17702;47.590;7.666;2022-09-09T12:01:41;6.78;;;2.13;;
31037;SDS011;17702;47.590;7.666;2022-09-09T12:11:48;4.28;;;1.45;;
31037;SDS011;17702;47.590;7.666;2022-09-09T12:14:21;9.32;;;1.13;;
31037;SDS011;17702;47.590;7.666;2022-09-09T12:19:46;2.55;;;1.20;;
31037;SDS011;17702;47.590;7.666;2022-09-09T12:25:06;13.25;;;3.58;;
31037;SDS011;17702;47.590;7.666;2022-09-09T12:30:41;1.85;;;0.40;;
31037;SDS011;17702;47.590;7.666;2022-09-09T12:33:24;4.03;;;0.60;;
31037;SDS011;17702;47.590;7.666;2022-09-09T12:35:58;3.88;;;0.70;;
31037;SDS011;17702;47.590;7.666;2022-09-09T12:38:38;3.08;;;0.63;;
31037;SDS011;17702;47.590;7.666;2022-09-09T12:41:06;2.83;;;0.68;;
31037;SDS011;17702;47.590;7.666;2022-09-09T12:43:44;11.60;;;1.23;;
31037;SDS011;17702;47.590;7.666;2022-09-09T12:46:12;5.18;;;0.60;;
31037;SDS011;17702;47.590;7.666;2022-09-09T12:48:52;5.00;;;0.90;;
31037;SDS011;17702;47.590;7.666;2022-09-09T12:51:26;5.38;;;0.47;;
31037;SDS011;17702;47.590;7.666;2022-09-09T12:53:54;3.47;;;0.55;;
31037;SDS011;17702;47.590;7.666;2022-09-09T12:56:21;3.53;;;0.40;;
31037;SDS011;17702;47.590;7.666;2022-09-09T12:58:52;3.17;;;0.40;;
31037;SDS011;17702;47.590;7.666;2022-09-09T13:01:21;2.45;;;0.28;;
31037;SDS011;17702;47.590;7.666;2022-09-09T13:03:50;2.30;;;0.20;;
31037;SDS011;17702;47.590;7.666;2022-09-09T13:06:23;1.50;;;0.30;;
31037;SDS011;17702;47.590;7.666;2022-09-09T13:08:56;2.53;;;0.30;;
31037;SDS011;17702;47.590;7.666;2022-09-09T13:11:46;2.10;;;0.55;;
31037;SDS011;17702;47.590;7.666;2022-09-09T13:14:15;3.53;;;0.45;;
31037;SDS011;17702;47.590;7.666;2022-09-09T13:16:54;0.70;;;0.60;;
31037;SDS011;17702;47.590;7.666;2022-09-09T13:19:21;2.33;;;0.40;;
31037;SDS011;17702;47.590;7.666;2022-09-09T13:21:50;2.38;;;0.40;;
31037;SDS011;17702;47.590;7.666;2022-09-09T13:24:30;2.08;;;0.70;;
31037;SDS011;17702;47.590;7.666;2022-09-09T13:27:02;5.68;;;0.45;;
31037;SDS011;17702;47.590;7.666;2022-09-09T13:29:29;1.75;;;0.40;;
31037;SDS011;17702;47.590;7.666;2022-09-09T13:32:12;2.17;;;0.25;;
31037;SDS011;17702;47.590;7.666;2022-09-09T13:34:50;0.90;;;0.30;;
31037;SDS011;17702;47.590;7.666;2022-09-09T13:37:38;3.67;;;0.30;;
31037;SDS011;17702;47.590;7.666;2022-09-09T13:40:04;1.23;;;0.47;;
31037;SDS011;17702;47.590;7.666;2022-09-09T13:42:32;2.88;;;0.50;;
31037;SDS011;17702;47.590;7.666;2022-09-09T13:45:03;4.18;;;0.50;;
31037;SDS011;17702;47.590;7.666;2022-09-09T13:47:33;4.55;;;0.93;;
31037;SDS011;17702;47.590;7.666;2022-09-09T13:52:48;4.95;;;0.85;;
31037;SDS011;17702;47.590;7.666;2022-09-09T13:55:16;1.08;;;0.50;;
31037;SDS011;17702;47.590;7.666;2022-09-09T13:57:56;2.72;;;0.40;;
31037;SDS011;17702;47.590;7.666;2022-09-09T14:02:50;0.90;;;0.30;;
31037;SDS011;17702;47.590;7.666;2022-09-09T14:05:16;1.20;;;0.32;;
31037;SDS011;17702;47.590;7.666;2022-09-09T14:07:43;2.63;;;0.50;;
31037;SDS011;17702;47.590;7.666;2022-09-09T14:10:10;1.88;;;0.50;;
31037;SDS011;17702;47.590;7.666;2022-09-09T14:12:36;2.55;;;0.50;;
31037;SDS011;17702;47.590;7.666;2022-09-09T14:15:05;3.92;;;0.47;;
31037;SDS011;17702;47.590;7.666;2022-09-09T14:17:33;1.85;;;0.40;;
31037;SDS011;17702;47.590;7.666;2022-09-09T14:20:01;3.25;;;0.30;;
31037;SDS011;17702;47.590;7.666;2022-09-09T14:22:28;2.75;;;0.40;;
31037;SDS011;17702;47.590;7.666;2022-09-09T14:24:54;3.22;;;0.63;;
31037;SDS011;17702;47.590;7.666;2022-09-09T14:27:19;1.73;;;0.47;;
31037;SDS011;17702;47.590;7.666;2022-09-09T14:29:45;1.25;;;0.30;;
31037;SDS011;17702;47.590;7.666;2022-09-09T14:32:11;3.33;;;0.32;;
31037;SDS011;17702;47.590;7.666;2022-09-09T14:34:37;3.35;;;0.30;;
31037;SDS011;17702;47.590;7.666;2022-09-09T14:37:03;0.57;;;0.20;;
31037;SDS011;17702;47.590;7.666;2022-09-09T14:39:28;2.30;;;0.40;;
31037;SDS011;17702;47.590;7.666;2022-09-09T14:41:54;5.47;;;0.52;;
31037;SDS011;17702;47.590;7.666;2022-09-09T14:44:20;1.92;;;0.40;;
31037;SDS011;17702;47.590;7.666;2022-09-09T14:46:46;4.00;;;0.40;;
31037;SDS011;17702;47.590;7.666;2022-09-09T14:49:15;2.22;;;0.32;;
31037;SDS011;17702;47.590;7.666;2022-09-09T14:51:40;3.75;;;0.30;;
31037;SDS011;17702;47.590;7.666;2022-09-09T14:54:06;1.70;;;0.52;;
31037;SDS011;17702;47.590;7.666;2022-09-09T14:56:34;1.95;;;0.60;;
31037;SDS011;17702;47.590;7.666;2022-09-09T14:59:00;0.73;;;0.30;;
31037;SDS011;17702;47.590;7.666;2022-09-09T15:01:26;1.70;;;0.30;;
31037;SDS011;17702;47.590;7.666;2022-09-09T15:03:55;1.42;;;0.52;;
31037;SDS011;17702;47.590;7.666;2022-09-09T15:06:26;2.85;;;0.30;;
31037;SDS011;17702;47.590;7.666;2022-09-09T15:08:54;2.20;;;0.50;;
31037;SDS011;17702;47.590;7.666;2022-09-09T15:11:22;0.93;;;0.30;;
31037;SDS011;17702;47.590;7.666;2022-09-09T15:13:50;2.88;;;0.65;;
31037;SDS011;17702;47.590;7.666;2022-09-09T15:16:20;27.48;;;1.23;;
31037;SDS011;17702;47.590;7.666;2022-09-09T15:18:49;1.38;;;0.40;;
31037;SDS011;17702;47.590;7.666;2022-09-09T15:21:17;95.55;;;5.18;;
31037;SDS011;17702;47.590;7.666;2022-09-09T15:23:44;1.17;;;0.40;;
31037;SDS011;17702;47.590;7.666;2022-09-09T15:26:10;3.08;;;0.80;;
31037;SDS011;17702;47.590;7.666;2022-09-09T15:28:39;2.95;;;0.50;;
31037;SDS011;17702;47.590;7.666;2022-09-09T15:31:06;3.13;;;0.60;;
31037;SDS011;17702;47.590;7.666;2022-09-09T15:33:35;2.08;;;0.35;;
31037;SDS011;17702;47.590;7.666;2022-09-09T15:36:12;2.63;;;0.73;;
31037;SDS011;17702;47.590;7.666;2022-09-09T15:38:39;2.35;;;0.22;;
31037;SDS011;17702;47.590;7.666;2022-09-09T15:41:05;5.10;;;0.60;;
31037;SDS011;17702;47.590;7.666;2022-09-09T15:43:31;0.88;;;0.38;;
31037;SDS011;17702;47.590;7.666;2022-09-09T15:45:58;3.38;;;0.60;;
31037;SDS011;17702;47.590;7.666;2022-09-09T15:48:50;1.90;;;0.40;;
31037;SDS011;17702;47.590;7.666;2022-09-09T15:51:17;2.90;;;0.57;;
31037;SDS011;17702;47.590;7.666;2022-09-09T15:53:43;4.32;;;0.82;;
31037;SDS011;17702;47.590;7.666;2022-09-09T15:56:10;2.35;;;0.50;;
31037;SDS011;17702;47.590;7.666;2022-09-09T15:58:35;1.10;;;0.50;;
31037;SDS011;17702;47.590;7.666;2022-09-09T16:01:04;2.30;;;0.40;;
31037;SDS011;17702;47.590;7.666;2022-09-09T16:03:35;0.82;;;0.32;;
31037;SDS011;17702;47.590;7.666;2022-09-09T16:06:03;1.83;;;0.45;;
31037;SDS011;17702;47.590;7.666;2022-09-09T16:08:37;2.80;;;0.55;;
31037;SDS011;17702;47.590;7.666;2022-09-09T16:11:08;1.55;;;0.63;;
31037;SDS011;17702;47.590;7.666;2022-09-09T16:13:37;4.38;;;0.50;;
31037;SDS011;17702;47.590;7.666;2022-09-09T16:16:04;1.77;;;0.40;;
31037;SDS011;17702;47.590;7.666;2022-09-09T16:18:38;1.73;;;0.50;;
31037;SDS011;17702;47.590;7.666;2022-09-09T16:21:05;1.58;;;0.45;;
31037;SDS011;17702;47.590;7.666;2022-09-09T16:23:33;3.13;;;0.40;;
31037;SDS011;17702;47.590;7.666;2022-09-09T16:25:59;0.80;;;0.30;;
31037;SDS011;17702;47.590;7.666;2022-09-09T16:28:25;1.73;;;0.40;;
31037;SDS011;17702;47.590;7.666;2022-09-09T16:30:51;3.72;;;0.60;;
31037;SDS011;17702;47.590;7.666;2022-09-09T16:33:17;1.80;;;0.50;;
31037;SDS011;17702;47.590;7.666;2022-09-09T16:35:42;3.75;;;0.63;;
31037;SDS011;17702;47.590;7.666;2022-09-09T16:38:09;1.45;;;0.30;;
31037;SDS011;17702;47.590;7.666;2022-09-09T16:40:35;3.42;;;0.60;;
31037;SDS011;17702;47.590;7.666;2022-09-09T16:43:01;2.72;;;0.50;;
31037;SDS011;17702;47.590;7.666;2022-09-09T16:45:27;1.10;;;0.30;;
31037;SDS011;17702;47.590;7.666;2022-09-09T16:47:54;1.33;;;0.20;;
31037;SDS011;17702;47.590;7.666;2022-09-09T16:50:19;1.17;;;0.30;;
31037;SDS011;17702;47.590;7.666;2022-09-09T16:52:45;0.38;;;0.20;;
31037;SDS011;17702;47.590;7.666;2022-09-09T16:55:10;1.23;;;0.20;;
31037;SDS011;17702;47.590;7.666;2022-09-09T16:57:36;1.80;;;0.20;;
31037;SDS011;17702;47.590;7.666;2022-09-09T17:00:03;1.50;;;0.20;;
31037;SDS011;17702;47.590;7.666;2022-09-09T17:02:30;0.88;;;0.17;;
31037;SDS011;17702;47.590;7.666;2022-09-09T17:04:56;2.05;;;0.17;;
31037;SDS011;17702;47.590;7.666;2022-09-09T17:07:22;3.33;;;0.30;;
31037;SDS011;17702;47.590;7.666;2022-09-09T17:09:47;2.22;;;0.30;;
31037;SDS011;17702;47.590;7.666;2022-09-09T17:12:14;1.95;;;0.50;;
31037;SDS011;17702;47.590;7.666;2022-09-09T17:14:41;0.73;;;0.20;;
31037;SDS011;17702;47.590;7.666;2022-09-09T17:17:07;0.65;;;0.22;;
31037;SDS011;17702;47.590;7.666;2022-09-09T17:19:33;1.02;;;0.47;;
31037;SDS011;17702;47.590;7.666;2022-09-09T17:21:58;1.23;;;0.28;;
31037;SDS011;17702;47.590;7.666;2022-09-09T17:24:25;0.57;;;0.32;;
31037;SDS011;17702;47.590;7.666;2022-09-09T17:26:51;0.50;;;0.43;;
31037;SDS011;17702;47.590;7.666;2022-09-09T17:29:18;1.90;;;0.20;;
31037;SDS011;17702;47.590;7.666;2022-09-09T17:31:43;1.45;;;0.30;;